^^
Saratoga-Weather Station Historical Data
Daily Summary for February 27, 2021 Units:  Metric    English   Both
Daily Weekly Monthly Yearly Custom
  High: Low: Average:
Temperature: 9.8 °C 2 °C 5.5 °C
Dew Point: 3.4 °C 0.4 °C 1.9 °C
Humidity: 90% 58% 78%
Wind Speed: 14.5km/h 0km/h 3.4km/h
Wind Gust: 22.5km/h - -
Wind- - SSE
Pressure: 1037.9 hPa 1035.2 hPa -
Precipitation: 0.0 mm    
Historical Graphs
 
 
Tabular Data for February 27, 2021
Time Temperature Dew Point Pressure Wind Wind Speed Wind Gust Humidity Rainfall Rate (Hourly) solar
00:02 3.2 °C 1.4 °C 1035.6 hPa Calm     88% 0.0 mm 0 W/m2
00:07 3.2 °C 1.4 °C 1035.6 hPa Calm     88% 0.0 mm 0 W/m2
00:12 3.1 °C 1.3 °C 1035.6 hPa Calm     88% 0.0 mm 0 W/m2
00:17 3.1 °C 1.3 °C 1035.6 hPa Calm     88% 0.0 mm 0 W/m2
00:27 2.9 °C 1.1 °C 1035.6 hPa Calm   1.6 km/h 88% 0.0 mm 0 W/m2
00:32 3.1 °C 1.3 °C 1035.6 hPa Calm   1.6 km/h 88% 0.0 mm 0 W/m2
00:37 3.2 °C 1.4 °C 1035.6 hPa Calm   1.6 km/h 88% 0.0 mm 0 W/m2
00:42 3.2 °C 1.4 °C 1035.6 hPa NE 1.4 km/h 1.6 km/h 88% 0.0 mm 0 W/m2
00:47 3.2 °C 1.4 °C 1035.9 hPa SE 1.4 km/h 3.2 km/h 88% 0.0 mm 0 W/m2
00:52 3.2 °C 1.2 °C 1035.9 hPa SSE 1.4 km/h 3.2 km/h 87% 0.0 mm 0 W/m2
00:57 3.1 °C 1.1 °C 1035.9 hPa SSE 1.4 km/h 3.2 km/h 87% 0.0 mm 0 W/m2
01:02 3 °C 1 °C 1035.9 hPa SSE 1.4 km/h 3.2 km/h 87% 0.0 mm 0 W/m2
01:07 3.1 °C 1.3 °C 1035.9 hPa NW 1.4 km/h 3.2 km/h 88% 0.0 mm 0 W/m2
01:12 3.1 °C 1.1 °C 1035.9 hPa WNW 4.7 km/h 4.8 km/h 87% 0.0 mm 0 W/m2
01:17 3.2 °C 1.2 °C 1035.9 hPa NW 3.2 km/h 3.2 km/h 87% 0.0 mm 0 W/m2
01:22 3.3 °C 1.3 °C 1035.9 hPa NW 1.4 km/h 4.8 km/h 87% 0.0 mm 0 W/m2
01:27 3.3 °C 1.2 °C 1035.9 hPa NW 1.4 km/h 3.2 km/h 86% 0.0 mm 0 W/m2
01:32 3.3 °C 1.2 °C 1035.9 hPa NNW 4.7 km/h 6.4 km/h 86% 0.0 mm 0 W/m2
01:37 3.4 °C 1.3 °C 1035.9 hPa NW 3.2 km/h 9.7 km/h 86% 0.0 mm 0 W/m2
01:42 3.6 °C 1.3 °C 1035.9 hPa WNW 4.7 km/h 4.8 km/h 85% 0.0 mm 0 W/m2
01:47 3.6 °C 1.3 °C 1035.9 hPa WNW 6.4 km/h 6.4 km/h 85% 0.0 mm 0 W/m2
01:52 3.6 °C 1.2 °C 1035.9 hPa WNW 3.2 km/h 6.4 km/h 84% 0.0 mm 0 W/m2
01:57 3.6 °C 1.3 °C 1036.2 hPa Calm   4.8 km/h 85% 0.0 mm 0 W/m2
02:02 3.7 °C 1.2 °C 1036.2 hPa West 3.2 km/h 6.4 km/h 84% 0.0 mm 0 W/m2
02:07 3.7 °C 1.2 °C 1036.2 hPa North 1.4 km/h 9.7 km/h 84% 0.0 mm 0 W/m2
02:12 3.7 °C 1.2 °C 1036.2 hPa NNW 4.7 km/h 4.8 km/h 84% 0.0 mm 0 W/m2
02:17 3.6 °C 1.2 °C 1036.2 hPa NW 3.2 km/h 9.7 km/h 84% 0.0 mm 0 W/m2
02:22 3.6 °C 1.2 °C 1036.2 hPa North 4.7 km/h 9.7 km/h 84% 0.0 mm 0 W/m2
02:27 3.6 °C 1.2 °C 1036.2 hPa West 3.2 km/h 3.2 km/h 84% 0.0 mm 0 W/m2
02:32 3.6 °C 1.2 °C 1036.2 hPa WNW 3.2 km/h 9.7 km/h 84% 0.0 mm 0 W/m2
02:37 3.6 °C 1.3 °C 1036.2 hPa WNW 1.4 km/h 8 km/h 85% 0.0 mm 0 W/m2
02:42 3.6 °C 1.2 °C 1036.2 hPa WNW 1.4 km/h 4.8 km/h 84% 0.0 mm 0 W/m2
02:47 3.7 °C 1.2 °C 1036.2 hPa NW 1.4 km/h 8 km/h 84% 0.0 mm 0 W/m2
02:52 3.6 °C 1.2 °C 1036.2 hPa East 3.2 km/h 8 km/h 84% 0.0 mm 0 W/m2
02:57 3.6 °C 1.2 °C 1036.2 hPa NW 1.4 km/h 3.2 km/h 84% 0.0 mm 0 W/m2
03:02 3.6 °C 1.2 °C 1036.2 hPa WNW 3.2 km/h 8 km/h 84% 0.0 mm 0 W/m2
03:07 3.6 °C 1.3 °C 1036.2 hPa NW 3.2 km/h 6.4 km/h 85% 0.0 mm 0 W/m2
03:12 3.6 °C 1.3 °C 1036.2 hPa WNW 3.2 km/h 8 km/h 85% 0.0 mm 0 W/m2
03:17 3.6 °C 1.2 °C 1036.2 hPa WNW 6.4 km/h 8 km/h 84% 0.0 mm 0 W/m2
03:22 3.6 °C 1.2 °C 1036.2 hPa West 3.2 km/h 3.2 km/h 84% 0.0 mm 0 W/m2
03:27 3.6 °C 1.3 °C 1036.2 hPa WSW 3.2 km/h 4.8 km/h 85% 0.0 mm 0 W/m2
03:37 3.6 °C 1.3 °C 1036.2 hPa WNW 6.4 km/h 6.4 km/h 85% 0.0 mm 0 W/m2
03:42 3.6 °C 1.3 °C 1036.2 hPa ENE 3.2 km/h 8 km/h 85% 0.0 mm 0 W/m2
03:47 3.6 °C 1.3 °C 1036.2 hPa WNW 4.7 km/h 6.4 km/h 85% 0.0 mm 0 W/m2
03:52 3.6 °C 1.3 °C 1036.2 hPa NNW 3.2 km/h 4.8 km/h 85% 0.0 mm 0 W/m2
03:57 3.5 °C 1.2 °C 1036.2 hPa West 6.4 km/h 9.7 km/h 85% 0.0 mm 0 W/m2
04:02 3.5 °C 1.2 °C 1036.2 hPa WSW 1.4 km/h 11.3 km/h 85% 0.0 mm 0 W/m2
04:07 3.4 °C 1.1 °C 1036.2 hPa WNW 4.7 km/h 9.7 km/h 85% 0.0 mm 0 W/m2
04:12 3.4 °C 1.1 °C 1036.2 hPa WNW 4.7 km/h 6.4 km/h 85% 0.0 mm 0 W/m2
04:17 3.3 °C 1 °C 1036.2 hPa WNW 4.7 km/h 6.4 km/h 85% 0.0 mm 0 W/m2
04:22 3.3 °C 1.2 °C 1036.2 hPa West 3.2 km/h 11.3 km/h 86% 0.0 mm 0 W/m2
04:27 3.2 °C 1.1 °C 1036.2 hPa WNW 3.2 km/h 6.4 km/h 86% 0.0 mm 0 W/m2
04:32 3.2 °C 1.1 °C 1036.2 hPa West 4.7 km/h 11.3 km/h 86% 0.0 mm 0 W/m2
04:37 3.2 °C 1.1 °C 1036.2 hPa WNW 6.4 km/h 6.4 km/h 86% 0.0 mm 0 W/m2
04:42 3.2 °C 1.1 °C 1036.2 hPa NNW 4.7 km/h 12.9 km/h 86% 0.0 mm 0 W/m2
04:47 3.2 °C 1.1 °C 1036.2 hPa WNW 3.2 km/h 11.3 km/h 86% 0.0 mm 0 W/m2
04:52 3.1 °C 1 °C 1036.2 hPa WNW 4.7 km/h 6.4 km/h 86% 0.0 mm 0 W/m2
04:57 3 °C 1 °C 1036.2 hPa WSW 6.4 km/h 8 km/h 87% 0.0 mm 0 W/m2
05:02 2.9 °C 1 °C 1036.2 hPa WNW 3.2 km/h 6.4 km/h 87% 0.0 mm 0 W/m2
05:07 2.9 °C 1 °C 1036.2 hPa Calm   3.2 km/h 87% 0.0 mm 0 W/m2
05:12 2.8 °C 0.9 °C 1036.2 hPa West 1.4 km/h 6.4 km/h 87% 0.0 mm 0 W/m2
05:17 2.7 °C 0.8 °C 1036.2 hPa Calm   3.2 km/h 87% 0.0 mm 0 W/m2
05:22 2.6 °C 0.7 °C 1036.2 hPa West 3.2 km/h 4.8 km/h 87% 0.0 mm 0 W/m2
05:27 2.4 °C 0.6 °C 1036.6 hPa Calm   3.2 km/h 88% 0.0 mm 0 W/m2
05:32 2.3 °C 0.5 °C 1036.6 hPa Calm   3.2 km/h 88% 0.0 mm 0 W/m2
05:37 2.2 °C 0.4 °C 1036.6 hPa WNW 1.4 km/h 1.6 km/h 88% 0.0 mm 0 W/m2
05:42 2.1 °C 0.5 °C 1036.6 hPa WSW 1.4 km/h 1.6 km/h 89% 0.0 mm 0 W/m2
05:47 2.1 °C 0.5 °C 1036.6 hPa Calm   8 km/h 89% 0.0 mm 0 W/m2
05:52 2.1 °C 0.6 °C 1036.6 hPa Calm   3.2 km/h 90% 0.0 mm 0 W/m2
05:57 2.1 °C 0.6 °C 1036.6 hPa ESE 1.4 km/h 8 km/h 90% 0.0 mm 0 W/m2
06:02 2.2 °C 0.7 °C 1036.6 hPa ENE 1.4 km/h 8 km/h 90% 0.0 mm 0 W/m2
06:07 2.2 °C 0.7 °C 1036.6 hPa Calm   3.2 km/h 90% 0.0 mm 0 W/m2
06:12 2.2 °C 0.7 °C 1036.6 hPa NNW 1.4 km/h 8 km/h 90% 0.0 mm 0 W/m2
06:17 2.2 °C 0.7 °C 1036.6 hPa West 4.7 km/h 6.4 km/h 90% 0.0 mm 0 W/m2
06:22 2.2 °C 0.7 °C 1036.6 hPa Calm   3.2 km/h 90% 0.0 mm 0 W/m2
06:27 2.2 °C 0.7 °C 1036.6 hPa ENE 3.2 km/h 4.8 km/h 90% 0.0 mm 0 W/m2
06:32 2.2 °C 0.6 °C 1036.9 hPa NW 1.4 km/h 3.2 km/h 89% 0.0 mm 0 W/m2
06:37 2.2 °C 0.6 °C 1036.9 hPa Calm   3.2 km/h 89% 0.0 mm 0 W/m2
06:42 2.2 °C 0.6 °C 1036.9 hPa NNW 3.2 km/h 3.2 km/h 89% 0.0 mm 0 W/m2
06:52 2.1 °C 0.5 °C 1036.9 hPa Calm   4.8 km/h 89% 0.0 mm 0 W/m2
06:57 2.2 °C 0.6 °C 1036.9 hPa WNW 1.4 km/h 4.8 km/h 89% 0.0 mm 0 W/m2
07:02 2.2 °C 0.7 °C 1036.9 hPa NNE 1.4 km/h 4.8 km/h 90% 0.0 mm 0 W/m2
07:07 2.2 °C 0.7 °C 1036.9 hPa North 4.7 km/h 8 km/h 90% 0.0 mm 0 W/m2
07:13 2.2 °C 0.7 °C 1036.9 hPa North 1.4 km/h 8 km/h 90% 0.0 mm 0 W/m2
07:18 2.1 °C 0.5 °C 1037.2 hPa East 1.4 km/h 4.8 km/h 89% 0.0 mm 0 W/m2
07:23 2.1 °C 0.5 °C 1036.9 hPa Calm   8 km/h 89% 0.0 mm 0 W/m2
07:28 2.1 °C 0.6 °C 1037.2 hPa SE 1.4 km/h 11.3 km/h 90% 0.0 mm 5 W/m2
07:33 2.1 °C 0.5 °C 1037.2 hPa East 1.4 km/h 4.8 km/h 89% 0.0 mm 9 W/m2
07:38 2.1 °C 0.6 °C 1037.2 hPa Calm   9.7 km/h 90% 0.0 mm 12 W/m2
07:43 2 °C 0.4 °C 1037.2 hPa NNE 1.4 km/h 6.4 km/h 89% 0.0 mm 14 W/m2
07:48 2 °C 0.4 °C 1037.2 hPa South 1.4 km/h 8 km/h 89% 0.0 mm 18 W/m2
07:53 2 °C 0.4 °C 1037.2 hPa NW 3.2 km/h 6.4 km/h 89% 0.0 mm 19 W/m2
07:58 2 °C 0.4 °C 1037.2 hPa WSW 1.4 km/h 6.4 km/h 89% 0.0 mm 21 W/m2
08:03 2 °C 0.4 °C 1037.2 hPa NW 4.7 km/h 4.8 km/h 89% 0.0 mm 25 W/m2
08:08 2 °C 0.5 °C 1037.2 hPa NNW 4.7 km/h 4.8 km/h 90% 0.0 mm 26 W/m2
08:13 2.1 °C 0.6 °C 1037.2 hPa ESE 3.2 km/h 6.4 km/h 90% 0.0 mm 30 W/m2
08:18 2.1 °C 0.6 °C 1037.6 hPa NE 1.4 km/h 1.6 km/h 90% 0.0 mm 35 W/m2
08:23 2.2 °C 0.6 °C 1037.6 hPa NE 1.4 km/h 6.4 km/h 89% 0.0 mm 37 W/m2
08:28 2.2 °C 0.6 °C 1037.6 hPa NE 1.4 km/h 3.2 km/h 89% 0.0 mm 39 W/m2
08:33 2.3 °C 0.7 °C 1037.6 hPa NNW 3.2 km/h 6.4 km/h 89% 0.0 mm 47 W/m2
08:38 2.4 °C 0.9 °C 1037.6 hPa ESE 1.4 km/h 4.8 km/h 90% 0.0 mm 44 W/m2
08:53 2.8 °C 1.2 °C 1037.6 hPa West 1.4 km/h 4.8 km/h 89% 0.0 mm 139 W/m2
08:58 2.9 °C 1.3 °C 1037.6 hPa NW 3.2 km/h 6.4 km/h 89% 0.0 mm 155 W/m2
09:03 3.1 °C 1.5 °C 1037.6 hPa NNW 1.4 km/h 6.4 km/h 89% 0.0 mm 171 W/m2
09:08 3.3 °C 1.5 °C 1037.6 hPa NNW 3.2 km/h 6.4 km/h 88% 0.0 mm 162 W/m2
09:13 3.4 °C 1.6 °C 1037.6 hPa Calm   3.2 km/h 88% 0.0 mm 130 W/m2
09:18 3.6 °C 1.8 °C 1037.6 hPa East 3.2 km/h 4.8 km/h 88% 0.0 mm 98 W/m2
09:23 3.8 °C 1.8 °C 1037.6 hPa SE 3.2 km/h 3.2 km/h 87% 0.0 mm 195 W/m2
09:28 4 °C 2 °C 1037.6 hPa North 1.4 km/h 3.2 km/h 87% 0.0 mm 76 W/m2
09:33 4.2 °C 2.2 °C 1037.6 hPa NE 1.4 km/h 8 km/h 87% 0.0 mm 246 W/m2
09:38 4.4 °C 2.3 °C 1037.6 hPa Calm   3.2 km/h 86% 0.0 mm 255 W/m2
09:43 4.7 °C 2.6 °C 1037.6 hPa NE 1.4 km/h 4.8 km/h 86% 0.0 mm 267 W/m2
09:48 4.9 °C 2.6 °C 1037.6 hPa North 3.2 km/h 11.3 km/h 85% 0.0 mm 278 W/m2
09:53 5.2 °C 2.9 °C 1037.9 hPa ESE 3.2 km/h 14.5 km/h 85% 0.0 mm 301 W/m2
09:58 5.4 °C 2.7 °C 1037.6 hPa East 4.7 km/h 6.4 km/h 83% 0.0 mm 313 W/m2
10:03 5.6 °C 2.9 °C 1037.6 hPa East 7.9 km/h 14.5 km/h 83% 0.0 mm 327 W/m2
10:08 5.8 °C 3 °C 1037.9 hPa ENE 9.7 km/h 19.3 km/h 82% 0.0 mm 336 W/m2
10:13 5.8 °C 2.8 °C 1037.9 hPa NE 6.4 km/h 12.9 km/h 81% 0.0 mm 350 W/m2
10:18 5.9 °C 2.7 °C 1037.6 hPa ENE 9.7 km/h 16.1 km/h 80% 0.0 mm 367 W/m2
10:23 5.8 °C 2.6 °C 1037.9 hPa North 3.2 km/h 9.7 km/h 80% 0.0 mm 369 W/m2
10:28 5.9 °C 2.9 °C 1037.6 hPa NNW 6.4 km/h 14.5 km/h 81% 0.0 mm 378 W/m2
10:33 6.2 °C 3 °C 1037.9 hPa ENE 14.3 km/h 20.9 km/h 80% 0.0 mm 394 W/m2
10:38 6.2 °C 2.8 °C 1037.9 hPa ENE 13 km/h 12.9 km/h 79% 0.0 mm 381 W/m2
10:43 6.2 °C 2.8 °C 1037.9 hPa ESE 6.4 km/h 20.9 km/h 79% 0.0 mm 410 W/m2
10:48 6.2 °C 2.8 °C 1037.9 hPa ENE 7.9 km/h 9.7 km/h 79% 0.0 mm 418 W/m2
10:53 6.4 °C 3 °C 1037.9 hPa East 6.4 km/h 19.3 km/h 79% 0.0 mm 427 W/m2
10:58 6.6 °C 3 °C 1037.9 hPa West 3.2 km/h 12.9 km/h 78% 0.0 mm 436 W/m2
11:03 6.7 °C 3 °C 1037.9 hPa SSE 6.4 km/h 22.5 km/h 77% 0.0 mm 443 W/m2
11:08 6.7 °C 3 °C 1037.9 hPa East 6.4 km/h 14.5 km/h 77% 0.0 mm 446 W/m2
11:13 6.7 °C 3 °C 1037.9 hPa NE 7.9 km/h 22.5 km/h 77% 0.0 mm 454 W/m2
11:18 6.9 °C 3 °C 1037.9 hPa ENE 1.4 km/h 11.3 km/h 76% 0.0 mm 452 W/m2
11:23 7.1 °C 3 °C 1037.9 hPa ENE 4.7 km/h 19.3 km/h 75% 0.0 mm 415 W/m2
11:28 7.2 °C 3.3 °C 1037.9 hPa SSE 3.2 km/h 8 km/h 76% 0.0 mm 369 W/m2
11:33 7.3 °C 3 °C 1037.6 hPa NE 6.4 km/h 14.5 km/h 74% 0.0 mm 221 W/m2
11:38 7.2 °C 3.1 °C 1037.9 hPa NE 6.4 km/h 11.3 km/h 75% 0.0 mm 200 W/m2
11:43 7.1 °C 3 °C 1037.9 hPa ENE 6.4 km/h 16.1 km/h 75% 0.0 mm 156 W/m2
11:48 7.1 °C 3.2 °C 1037.6 hPa WNW 4.7 km/h 9.7 km/h 76% 0.0 mm 308 W/m2
11:53 7.2 °C 3.4 °C 1037.9 hPa NNW 7.9 km/h 8 km/h 77% 0.0 mm 271 W/m2
11:58 7.4 °C 3.4 °C 1037.6 hPa NE 3.2 km/h 8 km/h 76% 0.0 mm 415 W/m2
12:03 7.4 °C 3.1 °C 1037.6 hPa WSW 4.7 km/h 12.9 km/h 74% 0.0 mm 490 W/m2
12:08 7.6 °C 3.1 °C 1037.6 hPa NW 4.7 km/h 14.5 km/h 73% 0.0 mm 454 W/m2
12:13 7.6 °C 3.1 °C 1037.6 hPa NW 9.7 km/h 9.7 km/h 73% 0.0 mm 517 W/m2
12:18 7.8 °C 3.3 °C 1037.6 hPa ENE 4.7 km/h 8 km/h 73% 0.0 mm 520 W/m2
12:28 8 °C 3.1 °C 1037.6 hPa SE 4.7 km/h 12.9 km/h 71% 0.0 mm 527 W/m2
12:38 8.4 °C 3.2 °C 1037.2 hPa East 4.7 km/h 16.1 km/h 70% 0.0 mm 540 W/m2
12:43 8.3 °C 2.9 °C 1037.2 hPa North 3.2 km/h 8 km/h 69% 0.0 mm 441 W/m2
12:48 8.1 °C 3 °C 1037.2 hPa NNE 3.2 km/h 8 km/h 70% 0.0 mm 128 W/m2
12:53 8 °C 2.9 °C 1037.2 hPa ESE 3.2 km/h 14.5 km/h 70% 0.0 mm 125 W/m2
12:58 8.1 °C 2.8 °C 1037.2 hPa NNE 7.9 km/h 8 km/h 69% 0.0 mm 81 W/m2
13:08 8.3 °C 2.9 °C 1036.9 hPa East 4.7 km/h 9.7 km/h 69% 0.0 mm 568 W/m2
13:13 8.4 °C 3 °C 1036.9 hPa ENE 1.4 km/h 4.8 km/h 69% 0.0 mm 519 W/m2
13:18 8.5 °C 2.9 °C 1036.9 hPa SSE 3.2 km/h 14.5 km/h 68% 0.0 mm 441 W/m2
13:23 8.7 °C 3.1 °C 1036.9 hPa SSW 4.7 km/h 14.5 km/h 68% 0.0 mm 167 W/m2
13:33 8.8 °C 3 °C 1036.9 hPa NNW 7.9 km/h 12.9 km/h 67% 0.0 mm 230 W/m2
13:38 8.8 °C 3.2 °C 1036.9 hPa NE 4.7 km/h 11.3 km/h 68% 0.0 mm 155 W/m2
13:43 8.8 °C 3.2 °C 1036.6 hPa NNW 3.2 km/h 16.1 km/h 68% 0.0 mm 149 W/m2
13:48 8.7 °C 2.9 °C 1036.6 hPa West 4.7 km/h 12.9 km/h 67% 0.0 mm 165 W/m2
13:53 8.7 °C 3.1 °C 1036.6 hPa East 4.7 km/h 12.9 km/h 68% 0.0 mm 153 W/m2
13:58 8.7 °C 2.9 °C 1036.6 hPa NW 6.4 km/h 14.5 km/h 67% 0.0 mm 151 W/m2
14:03 8.8 °C 3 °C 1036.2 hPa North 6.4 km/h 14.5 km/h 67% 0.0 mm 193 W/m2
14:08 8.8 °C 3 °C 1036.6 hPa WSW 3.2 km/h 9.7 km/h 67% 0.0 mm 146 W/m2
14:13 8.8 °C 2.8 °C 1036.2 hPa East 4.7 km/h 17.7 km/h 66% 0.0 mm 323 W/m2
14:18 8.8 °C 2.8 °C 1036.2 hPa East 3.2 km/h 6.4 km/h 66% 0.0 mm 186 W/m2
14:23 9.1 °C 3.1 °C 1036.2 hPa ENE 7.9 km/h 12.9 km/h 66% 0.0 mm 63 W/m2
14:28 9.1 °C 2.9 °C 1036.2 hPa NNE 4.7 km/h 19.3 km/h 65% 0.0 mm 209 W/m2
14:33 9.1 °C 2.9 °C 1036.2 hPa ENE 3.2 km/h 6.4 km/h 65% 0.0 mm 316 W/m2
14:38 9.3 °C 2.8 °C 1036.2 hPa NW 13 km/h 19.3 km/h 64% 0.0 mm 461 W/m2
14:43 9.5 °C 2.8 °C 1036.2 hPa ENE 3.2 km/h 14.5 km/h 63% 0.0 mm 448 W/m2
14:49 9.5 °C 2.8 °C 1036.2 hPa East 13 km/h 12.9 km/h 63% 0.0 mm 294 W/m2
14:54 9.3 °C 2.6 °C 1036.2 hPa ESE 6.4 km/h 12.9 km/h 63% 0.0 mm 213 W/m2
14:59 9.3 °C 2.6 °C 1035.9 hPa ESE 4.7 km/h 14.5 km/h 63% 0.0 mm 353 W/m2
15:04 9.4 °C 2.7 °C 1035.9 hPa SE 13 km/h 16.1 km/h 63% 0.0 mm 271 W/m2
15:09 9.4 °C 2.5 °C 1035.9 hPa NW 7.9 km/h 17.7 km/h 62% 0.0 mm 167 W/m2
15:14 9.4 °C 2.5 °C 1035.6 hPa NNE 6.4 km/h 17.7 km/h 62% 0.0 mm 134 W/m2
15:19 9.6 °C 2.9 °C 1035.6 hPa West 4.7 km/h 11.3 km/h 63% 0.0 mm 125 W/m2
15:24 9.7 °C 2.8 °C 1035.6 hPa ENE 4.7 km/h 17.7 km/h 62% 0.0 mm 195 W/m2
15:29 9.7 °C 2.5 °C 1035.9 hPa NE 3.2 km/h 16.1 km/h 61% 0.0 mm 327 W/m2
15:34 9.7 °C 2.5 °C 1035.6 hPa ESE 1.4 km/h 6.4 km/h 61% 0.0 mm 371 W/m2
15:39 9.8 °C 2.4 °C 1035.6 hPa East 6.4 km/h 16.1 km/h 60% 0.0 mm 237 W/m2
15:44 9.8 °C 2.4 °C 1035.6 hPa ESE 1.4 km/h 9.7 km/h 60% 0.0 mm 309 W/m2
15:49 9.8 °C 2.2 °C 1035.6 hPa SSW 4.7 km/h 19.3 km/h 59% 0.0 mm 246 W/m2
15:54 9.8 °C 2.2 °C 1035.6 hPa Calm   11.3 km/h 59% 0.0 mm 220 W/m2
15:59 9.8 °C 2.4 °C 1035.6 hPa NE 4.7 km/h 8 km/h 60% 0.0 mm 272 W/m2
16:04 9.8 °C 2.2 °C 1035.6 hPa WSW 4.7 km/h 9.7 km/h 59% 0.0 mm 297 W/m2
16:09 9.8 °C 2.2 °C 1035.6 hPa WSW 6.4 km/h 9.7 km/h 59% 0.0 mm 281 W/m2
16:14 9.8 °C 2.2 °C 1035.6 hPa NE 3.2 km/h 9.7 km/h 59% 0.0 mm 294 W/m2
16:19 9.8 °C 1.9 °C 1035.6 hPa North 6.4 km/h 8 km/h 58% 0.0 mm 281 W/m2
16:24 9.8 °C 1.9 °C 1035.6 hPa SE 3.2 km/h 14.5 km/h 58% 0.0 mm 269 W/m2
16:29 9.7 °C 1.8 °C 1035.6 hPa ESE 6.4 km/h 9.7 km/h 58% 0.0 mm 207 W/m2
16:34 9.6 °C 2 °C 1035.6 hPa ENE 7.9 km/h 16.1 km/h 59% 0.0 mm 90 W/m2
16:39 9.4 °C 1.8 °C 1035.6 hPa NNW 1.4 km/h 11.3 km/h 59% 0.0 mm 39 W/m2
16:49 9.3 °C 1.9 °C 1035.2 hPa North 1.4 km/h 9.7 km/h 60% 0.0 mm 49 W/m2
16:54 9.3 °C 1.9 °C 1035.6 hPa NE 1.4 km/h 19.3 km/h 60% 0.0 mm 32 W/m2
16:59 9.2 °C 2.1 °C 1035.6 hPa SSW 3.2 km/h 8 km/h 61% 0.0 mm 26 W/m2
17:04 9.1 °C 2 °C 1035.6 hPa ESE 1.4 km/h 9.7 km/h 61% 0.0 mm 25 W/m2
17:09 9 °C 2.1 °C 1035.6 hPa NE 7.9 km/h 12.9 km/h 62% 0.0 mm 25 W/m2
17:14 8.9 °C 2 °C 1035.6 hPa NNE 4.7 km/h 9.7 km/h 62% 0.0 mm 23 W/m2
17:19 8.8 °C 2.1 °C 1035.2 hPa ENE 6.4 km/h 12.9 km/h 63% 0.0 mm 21 W/m2
17:24 8.7 °C 2 °C 1035.6 hPa ENE 4.7 km/h 11.3 km/h 63% 0.0 mm 21 W/m2
17:29 8.6 °C 2.2 °C 1035.6 hPa ENE 6.4 km/h 9.7 km/h 64% 0.0 mm 19 W/m2
17:34 8.5 °C 2.1 °C 1035.6 hPa ESE 4.7 km/h 8 km/h 64% 0.0 mm 19 W/m2
17:44 8.3 °C 2.1 °C 1035.6 hPa East 4.7 km/h 6.4 km/h 65% 0.0 mm 16 W/m2
17:49 8.3 °C 2.1 °C 1035.6 hPa WNW 3.2 km/h 14.5 km/h 65% 0.0 mm 14 W/m2
17:54 8.2 °C 2.2 °C 1035.6 hPa NE 1.4 km/h 6.4 km/h 66% 0.0 mm 12 W/m2
17:59 8.1 °C 2.1 °C 1035.6 hPa ENE 1.4 km/h 4.8 km/h 66% 0.0 mm 11 W/m2
18:04 7.9 °C 2.2 °C 1035.6 hPa ENE 4.7 km/h 6.4 km/h 67% 0.0 mm 9 W/m2
18:09 7.9 °C 2.2 °C 1035.6 hPa Calm   6.4 km/h 67% 0.0 mm 7 W/m2
18:14 7.8 °C 2.1 °C 1035.6 hPa ESE 14.3 km/h 14.5 km/h 67% 0.0 mm 5 W/m2
18:19 7.7 °C 2.2 °C 1035.6 hPa NE 3.2 km/h 6.4 km/h 68% 0.0 mm 0 W/m2
18:24 7.7 °C 2.2 °C 1035.6 hPa NW 14.5 km/h 14.5 km/h 68% 0.0 mm 0 W/m2
18:29 7.6 °C 2.3 °C 1035.6 hPa WNW 6.4 km/h 9.7 km/h 69% 0.0 mm 0 W/m2
18:34 7.5 °C 2.2 °C 1035.6 hPa South 3.2 km/h 9.7 km/h 69% 0.0 mm 0 W/m2
18:39 7.4 °C 2.3 °C 1035.6 hPa NNE 1.4 km/h 4.8 km/h 70% 0.0 mm 0 W/m2
18:44 7.3 °C 2.2 °C 1035.9 hPa NE 6.4 km/h 6.4 km/h 70% 0.0 mm 0 W/m2
18:49 7.2 °C 2.3 °C 1035.6 hPa Calm   4.8 km/h 71% 0.0 mm 0 W/m2
18:54 7.2 °C 2.3 °C 1035.6 hPa NNW 1.4 km/h 4.8 km/h 71% 0.0 mm 0 W/m2
18:59 7.1 °C 2.2 °C 1035.9 hPa South 1.4 km/h 4.8 km/h 71% 0.0 mm 0 W/m2
19:04 7 °C 2.3 °C 1035.6 hPa SW 3.2 km/h 4.8 km/h 72% 0.0 mm 0 W/m2
19:09 6.9 °C 2.2 °C 1035.9 hPa East 4.7 km/h 9.7 km/h 72% 0.0 mm 0 W/m2
19:14 6.8 °C 2.3 °C 1035.6 hPa NE 6.4 km/h 6.4 km/h 73% 0.0 mm 0 W/m2
19:19 6.8 °C 2.3 °C 1035.9 hPa NE 6.4 km/h 11.3 km/h 73% 0.0 mm 0 W/m2
19:24 6.8 °C 2.5 °C 1035.9 hPa Calm   12.9 km/h 74% 0.0 mm 0 W/m2
19:29 6.7 °C 2.4 °C 1035.9 hPa SE 1.4 km/h 6.4 km/h 74% 0.0 mm 0 W/m2
19:34 6.7 °C 2.4 °C 1035.9 hPa NE 1.4 km/h 12.9 km/h 74% 0.0 mm 0 W/m2
19:39 6.6 °C 2.5 °C 1035.9 hPa ENE 3.2 km/h 9.7 km/h 75% 0.0 mm 0 W/m2
19:49 6.6 °C 2.5 °C 1035.9 hPa ENE 3.2 km/h 9.7 km/h 75% 0.0 mm 0 W/m2
19:54 6.5 °C 2.4 °C 1035.9 hPa SE 1.4 km/h 4.8 km/h 75% 0.0 mm 0 W/m2
19:59 6.4 °C 2.5 °C 1035.6 hPa East 1.4 km/h 3.2 km/h 76% 0.0 mm 0 W/m2
20:05 6.3 °C 2.4 °C 1035.6 hPa Calm   4.8 km/h 76% 0.0 mm 0 W/m2
20:10 6.3 °C 2.4 °C 1035.6 hPa ESE 4.7 km/h 8 km/h 76% 0.0 mm 0 W/m2
20:15 6.3 °C 2.4 °C 1035.6 hPa ENE 1.4 km/h 8 km/h 76% 0.0 mm 0 W/m2
20:20 6.2 °C 2.3 °C 1035.6 hPa East 1.4 km/h 8 km/h 76% 0.0 mm 0 W/m2
20:30 6.1 °C 2.4 °C 1035.6 hPa East 4.7 km/h 6.4 km/h 77% 0.0 mm 0 W/m2
20:35 6.1 °C 2.4 °C 1035.9 hPa SE 3.2 km/h 11.3 km/h 77% 0.0 mm 0 W/m2
20:40 6.1 °C 2.4 °C 1035.9 hPa SE 3.2 km/h 4.8 km/h 77% 0.0 mm 0 W/m2
20:45 6 °C 2.3 °C 1035.6 hPa NE 1.4 km/h 4.8 km/h 77% 0.0 mm 0 W/m2
20:50 5.9 °C 2.2 °C 1035.6 hPa Calm   11.3 km/h 77% 0.0 mm 0 W/m2
20:55 5.9 °C 2.4 °C 1035.6 hPa ESE 1.4 km/h 8 km/h 78% 0.0 mm 0 W/m2
21:00 5.8 °C 2.3 °C 1035.6 hPa ENE 1.4 km/h 4.8 km/h 78% 0.0 mm 0 W/m2
21:10 5.8 °C 2.3 °C 1035.6 hPa East 1.4 km/h 4.8 km/h 78% 0.0 mm 0 W/m2
21:15 5.7 °C 2.2 °C 1035.9 hPa WSW 1.4 km/h 3.2 km/h 78% 0.0 mm 0 W/m2
21:30 5.6 °C 2.2 °C 1035.9 hPa ENE 4.7 km/h 8 km/h 79% 0.0 mm 0 W/m2
21:35 5.6 °C 2.2 °C 1035.9 hPa ENE 1.4 km/h 9.7 km/h 79% 0.0 mm 0 W/m2
21:40 5.5 °C 2.1 °C 1035.9 hPa NE 3.2 km/h 4.8 km/h 79% 0.0 mm 0 W/m2
21:45 5.4 °C 2.1 °C 1035.9 hPa East 3.2 km/h 4.8 km/h 79% 0.0 mm 0 W/m2
21:50 5.4 °C 2.1 °C 1035.9 hPa Calm   3.2 km/h 79% 0.0 mm 0 W/m2
21:55 5.3 °C 2.1 °C 1035.9 hPa Calm   4.8 km/h 80% 0.0 mm 0 W/m2
22:00 5.3 °C 2.1 °C 1035.9 hPa Calm   4.8 km/h 80% 0.0 mm 0 W/m2
22:05 5.2 °C 2 °C 1035.9 hPa NNW 1.4 km/h 3.2 km/h 80% 0.0 mm 0 W/m2
22:10 5.1 °C 1.9 °C 1035.9 hPa Calm   4.8 km/h 80% 0.0 mm 0 W/m2
22:15 5.1 °C 1.9 °C 1035.9 hPa Calm   3.2 km/h 80% 0.0 mm 0 W/m2
22:25 4.9 °C 1.7 °C 1035.9 hPa ESE 3.2 km/h 3.2 km/h 80% 0.0 mm 0 W/m2
22:30 4.9 °C 1.9 °C 1035.9 hPa Calm   4.8 km/h 81% 0.0 mm 0 W/m2
22:35 4.8 °C 1.8 °C 1035.9 hPa SE 1.4 km/h 4.8 km/h 81% 0.0 mm 0 W/m2
22:40 4.8 °C 1.8 °C 1036.2 hPa ENE 3.2 km/h 6.4 km/h 81% 0.0 mm 0 W/m2
22:45 4.7 °C 1.7 °C 1036.2 hPa ESE 1.4 km/h 3.2 km/h 81% 0.0 mm 0 W/m2
22:50 4.7 °C 1.7 °C 1035.9 hPa ENE 3.2 km/h 4.8 km/h 81% 0.0 mm 0 W/m2
22:55 4.7 °C 1.9 °C 1035.9 hPa Calm   6.4 km/h 82% 0.0 mm 0 W/m2
23:00 4.7 °C 1.9 °C 1035.9 hPa ENE 1.4 km/h 3.2 km/h 82% 0.0 mm 0 W/m2
23:10 4.4 °C 1.6 °C 1036.2 hPa Calm   1.6 km/h 82% 0.0 mm 0 W/m2
23:15 4.3 °C 1.5 °C 1036.2 hPa East 1.4 km/h 3.2 km/h 82% 0.0 mm 0 W/m2
23:25 4 °C 1.4 °C 1036.2 hPa Calm   3.2 km/h 83% 0.0 mm 0 W/m2
23:30 3.8 °C 1.2 °C 1036.2 hPa Calm     83% 0.0 mm 0 W/m2
23:35 3.6 °C 1.2 °C 1036.2 hPa Calm   1.6 km/h 84% 0.0 mm 0 W/m2
23:40 3.6 °C 1.3 °C 1036.2 hPa ENE 1.4 km/h 6.4 km/h 85% 0.0 mm 0 W/m2
23:50 3.6 °C 1.3 °C 1036.2 hPa Calm   3.2 km/h 85% 0.0 mm 0 W/m2
23:55 3.6 °C 1.3 °C 1036.2 hPa ESE 1.4 km/h 4.8 km/h 85% 0.0 mm 0 W/m2
Juneau County Weather
Compliments of Weather Underground - 4 mb